createdAt,value
2018-08-30T00:00:55.832Z,24.80
2018-08-30T00:03:37.430Z,24.80
2018-08-30T00:06:19.232Z,24.80
2018-08-30T00:09:01.501Z,24.80
2018-08-30T00:11:42.866Z,24.80
2018-08-30T00:14:24.725Z,24.80
2018-08-30T00:17:06.538Z,24.80
2018-08-30T00:19:48.178Z,24.80
2018-08-30T00:22:31.167Z,24.80
2018-08-30T00:25:12.856Z,24.80
2018-08-30T00:27:54.792Z,24.80
2018-08-30T00:30:36.337Z,24.80
2018-08-30T00:33:18.294Z,24.70
2018-08-30T00:35:59.915Z,24.70
2018-08-30T00:38:42.588Z,24.80
2018-08-30T00:41:23.767Z,24.70
2018-08-30T00:44:04.682Z,24.70
2018-08-30T00:46:45.490Z,24.70
2018-08-30T00:49:26.589Z,24.80
2018-08-30T00:52:07.875Z,24.80
2018-08-30T00:54:49.198Z,24.80
2018-08-30T00:57:30.402Z,24.80
2018-08-30T01:00:11.588Z,24.80
2018-08-30T01:02:52.490Z,24.80
2018-08-30T01:05:34.448Z,24.80
2018-08-30T01:08:15.365Z,24.90
2018-08-30T01:10:57.262Z,24.90
2018-08-30T01:13:38.296Z,24.90
2018-08-30T01:16:20.198Z,24.90
2018-08-30T01:19:02.016Z,24.90
2018-08-30T01:21:43.748Z,24.90
2018-08-30T01:24:24.721Z,24.90
2018-08-30T01:27:06.440Z,24.90
2018-08-30T01:29:48.075Z,24.90
2018-08-30T01:32:29.943Z,24.90
2018-08-30T01:35:11.655Z,24.90
2018-08-30T01:37:53.362Z,25.00
2018-08-30T01:40:35.039Z,25.00
2018-08-30T01:43:15.870Z,25.00
2018-08-30T01:45:57.778Z,25.00
2018-08-30T01:48:38.703Z,25.00
2018-08-30T01:51:20.402Z,25.10
2018-08-30T01:54:01.452Z,25.10
2018-08-30T01:56:43.289Z,25.10
2018-08-30T01:59:24.248Z,25.10
2018-08-30T02:02:05.186Z,25.10
2018-08-30T02:04:47.019Z,25.10
2018-08-30T02:07:28.085Z,25.10
2018-08-30T02:10:09.107Z,25.20
2018-08-30T02:12:50.673Z,25.10
2018-08-30T02:15:32.342Z,25.20
2018-08-30T02:18:14.291Z,25.20
2018-08-30T02:20:56.169Z,25.20
2018-08-30T02:23:37.918Z,25.20
2018-08-30T02:26:19.570Z,25.20
2018-08-30T02:29:01.272Z,25.20
2018-08-30T02:31:42.262Z,25.30
2018-08-30T02:34:24.581Z,25.30
2018-08-30T02:37:05.831Z,25.30
2018-08-30T02:39:48.646Z,25.30
2018-08-30T02:42:30.346Z,25.30
2018-08-30T02:45:11.223Z,25.30
2018-08-30T02:47:51.953Z,25.30
2018-08-30T02:50:33.834Z,25.30
2018-08-30T02:53:15.605Z,25.30
2018-08-30T02:55:58.138Z,25.30
2018-08-30T02:58:40.333Z,25.30
2018-08-30T03:01:22.139Z,25.30
2018-08-30T03:04:05.080Z,25.20
2018-08-30T03:06:46.727Z,25.20
2018-08-30T03:09:27.735Z,25.20
2018-08-30T03:12:08.864Z,25.20
2018-08-30T03:14:49.597Z,25.20
2018-08-30T03:17:30.662Z,25.20
2018-08-30T03:20:14.051Z,25.20
2018-08-30T03:22:55.221Z,25.20
2018-08-30T03:25:36.983Z,25.20
2018-08-30T03:28:18.752Z,25.10
2018-08-30T03:30:59.842Z,25.10
2018-08-30T03:33:42.590Z,25.10
2018-08-30T03:36:24.152Z,25.10
2018-08-30T03:39:05.980Z,25.20
2018-08-30T03:41:47.734Z,25.10
2018-08-30T03:44:28.633Z,25.10
2018-08-30T03:47:16.580Z,25.10
2018-08-30T03:49:58.401Z,25.20
2018-08-30T03:52:40.029Z,25.10
2018-08-30T03:58:10.399Z,25.10
2018-08-30T04:00:52.037Z,25.10
2018-08-30T04:03:33.847Z,25.10
2018-08-30T04:06:15.698Z,25.10
2018-08-30T04:08:57.374Z,25.10
2018-08-30T04:11:39.786Z,25.10
2018-08-30T04:14:20.706Z,25.10
2018-08-30T04:17:02.420Z,25.10
2018-08-30T04:19:44.369Z,25.00
2018-08-30T04:22:26.230Z,25.00
2018-08-30T04:25:08.058Z,25.00
2018-08-30T04:27:49.834Z,25.00
2018-08-30T04:30:31.527Z,25.00
2018-08-30T04:33:13.743Z,25.00
2018-08-30T04:35:54.872Z,25.00
2018-08-30T04:38:36.767Z,24.90
2018-08-30T04:41:18.572Z,24.90
2018-08-30T04:44:00.511Z,24.90
2018-08-30T04:46:42.090Z,24.90
2018-08-30T04:49:23.802Z,24.90
2018-08-30T04:52:05.484Z,24.90
2018-08-30T04:54:47.553Z,24.90
2018-08-30T04:57:29.041Z,24.90
2018-08-30T05:00:10.609Z,24.90
2018-08-30T05:02:51.643Z,24.90
2018-08-30T05:05:33.456Z,24.90
2018-08-30T05:08:15.352Z,24.90
2018-08-30T05:10:57.382Z,24.90
2018-08-30T05:13:39.023Z,24.90
2018-08-30T05:16:20.793Z,24.90
2018-08-30T05:19:02.385Z,24.90
2018-08-30T05:21:43.380Z,24.90
2018-08-30T05:24:25.031Z,24.90
2018-08-30T05:27:06.825Z,24.90
2018-08-30T05:29:48.525Z,24.90
2018-08-30T05:32:30.185Z,24.90
2018-08-30T05:35:11.889Z,24.90
2018-08-30T05:37:53.701Z,24.90
2018-08-30T05:40:35.447Z,24.90
2018-08-30T05:43:16.966Z,25.00
2018-08-30T05:45:58.717Z,25.00
2018-08-30T05:48:40.246Z,25.00
2018-08-30T05:51:21.384Z,25.00
2018-08-30T05:54:02.470Z,25.00
2018-08-30T05:56:43.451Z,25.10
2018-08-30T05:59:25.093Z,25.10
2018-08-30T06:02:06.004Z,25.10
2018-08-30T06:04:47.654Z,25.20
2018-08-30T06:07:29.334Z,25.20
2018-08-30T06:10:11.228Z,25.30
2018-08-30T06:12:52.218Z,25.40
2018-08-30T06:15:34.125Z,25.40
2018-08-30T06:18:15.970Z,25.50
2018-08-30T06:20:57.841Z,25.60
2018-08-30T06:23:39.701Z,25.70
2018-08-30T06:26:21.290Z,25.80
2018-08-30T06:29:03.176Z,25.80
2018-08-30T06:31:45.152Z,25.90
2018-08-30T06:34:26.913Z,26.00
2018-08-30T06:37:09.750Z,26.00
2018-08-30T06:39:51.224Z,26.10
2018-08-30T06:42:32.760Z,26.20
2018-08-30T06:45:14.522Z,26.30
2018-08-30T06:47:56.133Z,26.30
2018-08-30T06:50:38.374Z,26.50
2018-08-30T06:53:19.317Z,26.60
2018-08-30T06:56:00.985Z,26.70
2018-08-30T06:58:42.771Z,26.80
2018-08-30T07:01:24.404Z,27.00
2018-08-30T07:04:06.107Z,26.90
2018-08-30T07:06:46.944Z,26.90
2018-08-30T07:09:28.875Z,26.80
2018-08-30T07:12:10.855Z,26.90
2018-08-30T07:14:52.318Z,26.90
2018-08-30T07:17:33.974Z,26.90
2018-08-30T07:20:14.832Z,26.80
2018-08-30T07:22:55.830Z,26.90
2018-08-30T07:25:37.369Z,26.90
2018-08-30T07:28:18.982Z,27.00
2018-08-30T07:31:00.907Z,27.10
2018-08-30T07:33:42.700Z,27.20
2018-08-30T07:36:24.405Z,27.20
2018-08-30T07:39:06.057Z,27.20
2018-08-30T07:41:46.810Z,27.20
2018-08-30T07:44:28.689Z,27.20
2018-08-30T07:47:10.342Z,27.20
2018-08-30T07:49:52.160Z,27.20
2018-08-30T07:52:33.796Z,27.30
2018-08-30T07:55:15.145Z,27.40
2018-08-30T07:57:56.828Z,27.60
2018-08-30T08:00:38.732Z,27.70
2018-08-30T08:03:21.043Z,27.70
2018-08-30T08:06:02.629Z,27.70
2018-08-30T08:08:44.300Z,27.70
2018-08-30T08:11:25.108Z,27.80
2018-08-30T08:16:54.449Z,28.00
2018-08-30T08:19:36.229Z,28.10
2018-08-30T08:22:18.025Z,28.30
2018-08-30T08:24:58.874Z,28.50
2018-08-30T08:27:39.698Z,28.60
2018-08-30T08:30:21.217Z,28.70
2018-08-30T08:33:02.057Z,28.80
2018-08-30T08:35:43.694Z,29.00
2018-08-30T08:38:24.544Z,29.20
2018-08-30T08:41:05.314Z,29.40
2018-08-30T08:43:46.095Z,29.40
2018-08-30T08:46:27.982Z,29.40
2018-08-30T08:49:11.115Z,29.60
2018-08-30T08:51:52.768Z,29.80
2018-08-30T08:54:34.824Z,30.20
2018-08-30T08:57:16.431Z,30.60
2018-08-30T08:59:57.870Z,31.20
2018-08-30T09:02:38.825Z,31.30
2018-08-30T09:05:20.455Z,31.40
2018-08-30T09:08:02.286Z,31.60
2018-08-30T09:10:43.112Z,31.50
2018-08-30T09:13:24.734Z,31.10
2018-08-30T09:16:06.420Z,30.90
2018-08-30T09:18:48.087Z,30.80
2018-08-30T09:21:28.873Z,30.50
2018-08-30T09:24:09.908Z,30.40
2018-08-30T09:26:51.483Z,30.40
2018-08-30T09:29:33.062Z,30.30
2018-08-30T09:32:14.050Z,30.10
2018-08-30T09:34:56.667Z,30.10
2018-08-30T09:37:37.440Z,30.00
2018-08-30T09:40:18.486Z,29.90
2018-08-30T09:43:00.255Z,30.20
2018-08-30T09:45:42.098Z,30.30
2018-08-30T09:48:22.943Z,30.30
2018-08-30T09:51:03.612Z,30.10
2018-08-30T09:53:45.338Z,30.00
2018-08-30T09:56:27.183Z,29.80
2018-08-30T09:59:09.763Z,29.70
2018-08-30T10:01:55.611Z,29.90
2018-08-30T10:04:37.516Z,29.80
2018-08-30T10:07:19.312Z,30.10
2018-08-30T10:10:00.993Z,30.30
2018-08-30T10:12:42.811Z,30.60
2018-08-30T10:37:35.853Z,31.60
2018-08-30T10:40:17.738Z,31.60
2018-08-30T10:42:58.665Z,31.40
2018-08-30T10:45:39.413Z,31.50
2018-08-30T10:48:20.479Z,31.70
2018-08-30T10:51:02.112Z,31.60
2018-08-30T10:53:43.945Z,31.30
2018-08-30T10:56:24.976Z,31.10
2018-08-30T10:59:06.634Z,31.10
2018-08-30T11:01:47.642Z,31.30
2018-08-30T11:04:28.907Z,31.50
2018-08-30T11:07:10.545Z,31.60
2018-08-30T11:09:52.906Z,31.50
2018-08-30T11:12:34.114Z,31.50
2018-08-30T11:15:15.865Z,31.40
2018-08-30T11:17:57.287Z,31.30
2018-08-30T11:20:38.244Z,31.10
2018-08-30T11:23:20.027Z,31.20
2018-08-30T11:26:00.709Z,31.10
2018-08-30T11:28:42.409Z,30.90
2018-08-30T11:31:24.005Z,30.60
2018-08-30T11:34:06.521Z,30.50
2018-08-30T11:36:47.464Z,30.40
2018-08-30T11:39:28.368Z,30.60
2018-08-30T11:42:09.229Z,30.60
2018-08-30T11:44:50.898Z,30.70
2018-08-30T11:47:31.769Z,30.70
2018-08-30T11:50:12.442Z,30.70
2018-08-30T11:52:54.056Z,30.70
2018-08-30T11:55:35.739Z,30.80
2018-08-30T11:58:17.295Z,30.90
2018-08-30T12:00:58.248Z,31.00
2018-08-30T12:03:39.974Z,31.10
2018-08-30T12:06:21.642Z,31.30
2018-08-30T12:09:03.528Z,31.40
2018-08-30T12:11:44.945Z,31.40
2018-08-30T12:14:25.760Z,31.60
2018-08-30T12:17:06.574Z,31.60
2018-08-30T12:19:48.163Z,31.50
2018-08-30T12:22:30.151Z,31.60
2018-08-30T12:25:11.370Z,31.40
2018-08-30T12:27:52.231Z,31.40
2018-08-30T12:30:34.492Z,31.30
2018-08-30T12:33:15.721Z,31.20
2018-08-30T12:35:57.525Z,31.10
2018-08-30T12:38:38.409Z,30.90
2018-08-30T12:41:20.023Z,31.00
2018-08-30T12:44:01.379Z,31.00
2018-08-30T12:46:42.626Z,30.90
2018-08-30T12:49:24.141Z,30.80
2018-08-30T12:52:05.983Z,30.80
2018-08-30T12:54:47.631Z,31.00
2018-08-30T12:57:29.264Z,30.90
2018-08-30T13:00:11.318Z,30.60
2018-08-30T13:02:54.859Z,30.50
2018-08-30T13:05:36.288Z,30.50
2018-08-30T13:08:17.697Z,30.50
2018-08-30T13:11:00.567Z,30.50
2018-08-30T13:13:42.307Z,30.60
2018-08-30T13:16:23.388Z,30.80
2018-08-30T13:19:04.804Z,30.70
2018-08-30T13:21:46.908Z,30.70
2018-08-30T13:24:28.404Z,30.80
2018-08-30T13:27:10.152Z,30.70
2018-08-30T13:29:52.003Z,30.60
2018-08-30T13:32:33.022Z,30.60
2018-08-30T13:35:13.863Z,30.40
2018-08-30T13:37:55.529Z,29.80
2018-08-30T13:40:37.445Z,30.00
2018-08-30T13:43:19.184Z,29.90
2018-08-30T13:46:01.570Z,29.90
2018-08-30T13:48:43.412Z,29.90
2018-08-30T13:51:24.656Z,29.80
2018-08-30T13:54:06.421Z,29.50
2018-08-30T13:56:47.854Z,29.60
2018-08-30T13:59:28.737Z,29.90
2018-08-30T14:02:10.059Z,30.10
2018-08-30T14:04:52.075Z,30.10
2018-08-30T14:07:33.505Z,30.00
2018-08-30T14:10:15.354Z,30.00
2018-08-30T14:12:56.953Z,29.80
2018-08-30T14:15:38.534Z,29.70
2018-08-30T14:18:20.502Z,29.80
2018-08-30T14:21:02.019Z,29.90
2018-08-30T14:23:43.955Z,30.10
2018-08-30T14:26:25.515Z,30.20
2018-08-30T14:29:07.232Z,30.40
2018-08-30T14:31:49.202Z,30.60
2018-08-30T14:34:30.463Z,30.70
2018-08-30T14:37:12.060Z,30.60
2018-08-30T14:39:54.291Z,30.50
2018-08-30T14:42:35.675Z,30.30
2018-08-30T14:45:17.508Z,30.20
2018-08-30T14:47:59.422Z,30.10
2018-08-30T14:50:40.911Z,30.00
2018-08-30T14:53:21.895Z,30.20
2018-08-30T14:56:03.460Z,30.40
2018-08-30T15:29:54.705Z,29.50
2018-08-30T15:32:36.362Z,29.50
2018-08-30T15:35:17.965Z,29.50
2018-08-30T15:37:58.746Z,29.50
2018-08-30T15:40:40.591Z,29.40
2018-08-30T15:43:21.378Z,29.40
2018-08-30T15:46:03.170Z,29.50
2018-08-30T15:48:44.743Z,29.50
2018-08-30T15:51:27.501Z,29.20
2018-08-30T15:54:08.399Z,29.30
2018-08-30T15:56:50.247Z,29.30
2018-08-30T15:59:31.149Z,29.40
2018-08-30T16:02:13.145Z,29.10
2018-08-30T16:04:55.210Z,28.70
2018-08-30T16:07:36.398Z,28.80
2018-08-30T16:10:17.220Z,29.00
2018-08-30T16:12:58.072Z,29.00
2018-08-30T16:15:39.623Z,29.00
2018-08-30T16:18:21.314Z,29.00
2018-08-30T16:21:02.937Z,28.90
2018-08-30T16:23:43.714Z,28.90
2018-08-30T16:26:24.885Z,28.70
2018-08-30T16:29:06.302Z,28.60
2018-08-30T16:31:47.830Z,28.60
2018-08-30T16:34:28.583Z,28.60
2018-08-30T16:37:09.404Z,28.50
2018-08-30T16:39:51.282Z,28.50
2018-08-30T16:42:32.867Z,28.30
2018-08-30T16:45:14.595Z,28.20
2018-08-30T16:47:56.224Z,28.10
2018-08-30T16:50:37.122Z,28.10
2018-08-30T16:53:19.725Z,28.10
2018-08-30T16:56:01.501Z,28.00
2018-08-30T16:58:43.314Z,27.80
2018-08-30T17:04:15.562Z,27.70
2018-08-30T17:06:57.221Z,27.60
2018-08-30T17:09:39.135Z,27.70
2018-08-30T17:12:21.288Z,27.60
2018-08-30T17:15:02.908Z,27.60
2018-08-30T17:17:44.582Z,27.50
2018-08-30T17:20:26.090Z,27.40
2018-08-30T17:23:07.771Z,27.40
2018-08-30T17:25:48.665Z,27.30
2018-08-30T17:28:30.337Z,27.30
2018-08-30T17:31:12.419Z,27.30
2018-08-30T17:33:53.854Z,27.20
2018-08-30T17:36:35.553Z,27.20
2018-08-30T17:39:17.112Z,27.10
2018-08-30T17:41:58.849Z,27.10
2018-08-30T17:44:40.669Z,27.00
2018-08-30T17:47:22.494Z,27.00
2018-08-30T17:50:04.442Z,27.00
2018-08-30T17:52:46.089Z,26.90
2018-08-30T17:55:27.809Z,26.90
2018-08-30T17:58:09.493Z,26.90
2018-08-30T18:00:51.060Z,26.80
2018-08-30T18:03:32.665Z,26.80
2018-08-30T18:06:14.393Z,26.80
2018-08-30T18:08:56.146Z,26.80
2018-08-30T18:11:38.875Z,26.80
2018-08-30T18:14:20.522Z,26.70
2018-08-30T18:17:02.246Z,26.70
2018-08-30T18:19:43.873Z,26.60
2018-08-30T18:22:25.551Z,26.60
2018-08-30T18:25:07.090Z,26.60
2018-08-30T18:27:48.893Z,26.50
2018-08-30T18:30:30.683Z,26.50
2018-08-30T18:33:12.318Z,26.50
2018-08-30T18:35:53.921Z,26.40
2018-08-30T18:38:35.635Z,26.40
2018-08-30T18:41:17.241Z,26.40
2018-08-30T18:43:59.069Z,26.40
2018-08-30T18:46:39.986Z,26.40
2018-08-30T18:49:21.762Z,26.40
2018-08-30T18:52:03.227Z,26.40
2018-08-30T18:54:44.001Z,26.30
2018-08-30T18:57:25.499Z,26.30
2018-08-30T19:00:06.368Z,26.30
2018-08-30T19:02:47.956Z,26.30
2018-08-30T19:05:29.660Z,26.30
2018-08-30T19:08:11.230Z,26.30
2018-08-30T19:10:52.148Z,26.30
2018-08-30T19:13:33.990Z,26.20
2018-08-30T19:16:20.811Z,26.20
2018-08-30T19:19:07.468Z,26.20
2018-08-30T19:21:49.805Z,26.20
2018-08-30T19:24:36.322Z,26.20
2018-08-30T19:27:17.531Z,26.20
2018-08-30T19:30:04.154Z,26.20
2018-08-30T19:32:45.717Z,26.20
2018-08-30T19:35:31.383Z,26.20
2018-08-30T19:38:12.245Z,26.30
2018-08-30T19:40:58.223Z,26.20
2018-08-30T19:43:39.849Z,26.10
2018-08-30T19:46:21.805Z,26.20
2018-08-30T19:49:03.447Z,26.20
2018-08-30T19:51:45.410Z,26.10
2018-08-30T19:54:26.912Z,26.10
2018-08-30T19:57:08.636Z,26.10
2018-08-30T19:59:50.379Z,26.10
2018-08-30T20:02:32.019Z,26.00
2018-08-30T20:05:12.865Z,26.00
2018-08-30T20:07:54.633Z,26.00
2018-08-30T20:10:36.182Z,26.00
2018-08-30T20:13:16.954Z,26.00
2018-08-30T20:15:58.086Z,26.10
2018-08-30T20:18:39.726Z,26.00
2018-08-30T20:21:21.646Z,26.00
2018-08-30T20:24:03.538Z,26.00
2018-08-30T20:26:45.190Z,26.00
2018-08-30T20:29:26.843Z,26.00
2018-08-30T20:32:08.757Z,26.10
2018-08-30T20:34:53.226Z,26.10
2018-08-30T20:37:37.009Z,26.10
2018-08-30T20:40:18.800Z,26.00
2018-08-30T20:43:01.339Z,26.10
2018-08-30T20:45:42.458Z,26.20
2018-08-30T20:48:24.128Z,26.10
2018-08-30T20:51:06.879Z,26.10
2018-08-30T20:53:47.991Z,26.20
2018-08-30T20:56:30.029Z,26.20
2018-08-30T20:59:11.937Z,26.20
2018-08-30T21:01:53.919Z,26.10
2018-08-30T21:04:35.780Z,26.10
2018-08-30T21:07:17.732Z,26.10
2018-08-30T21:09:58.689Z,26.10
2018-08-30T21:12:39.669Z,26.00
2018-08-30T21:15:20.872Z,26.00
2018-08-30T21:18:02.723Z,26.00
2018-08-30T21:20:45.772Z,26.00
2018-08-30T21:23:26.939Z,26.00
2018-08-30T21:26:08.100Z,26.00
2018-08-30T21:28:49.742Z,25.90
2018-08-30T21:31:31.482Z,25.90
2018-08-30T21:34:13.062Z,25.90
2018-08-30T21:36:54.120Z,25.90
2018-08-30T21:39:35.786Z,25.90
2018-08-30T21:42:17.299Z,25.80
2018-08-30T21:44:59.192Z,25.80
2018-08-30T21:47:40.731Z,25.80
2018-08-30T21:50:23.163Z,25.70
2018-08-30T21:53:03.869Z,25.70
2018-08-30T21:55:45.495Z,25.70
2018-08-30T21:58:27.181Z,25.70
2018-08-30T22:01:07.896Z,25.60
2018-08-30T22:03:48.830Z,25.70
2018-08-30T22:06:29.638Z,25.70
2018-08-30T22:09:12.024Z,25.60
2018-08-30T22:11:53.221Z,25.60
2018-08-30T22:14:34.079Z,25.70
2018-08-30T22:17:15.217Z,25.70
2018-08-30T22:19:56.127Z,25.70
2018-08-30T22:22:37.437Z,25.70
2018-08-30T22:25:18.622Z,25.70
2018-08-30T22:28:00.295Z,25.70
2018-08-30T22:30:43.029Z,25.70
2018-08-30T22:33:24.533Z,25.70
2018-08-30T22:36:06.312Z,25.70
2018-08-30T22:38:47.909Z,25.70
2018-08-30T22:41:28.695Z,25.60
2018-08-30T22:44:10.363Z,25.60
2018-08-30T22:46:51.106Z,25.70
2018-08-30T22:49:32.893Z,25.70
2018-08-30T22:52:14.305Z,25.70
2018-08-30T22:54:56.159Z,25.70
2018-08-30T22:57:37.796Z,25.70
2018-08-30T23:00:19.437Z,25.70
2018-08-30T23:03:00.341Z,25.70
2018-08-30T23:05:42.091Z,25.70
2018-08-30T23:08:24.248Z,25.70
2018-08-30T23:11:05.386Z,25.70
2018-08-30T23:13:46.931Z,25.70
2018-08-30T23:16:28.982Z,25.70
2018-08-30T23:19:09.700Z,25.70
2018-08-30T23:21:50.641Z,25.70
2018-08-30T23:24:31.514Z,25.80
2018-08-30T23:27:12.680Z,25.70
2018-08-30T23:29:53.854Z,25.70
2018-08-30T23:32:34.965Z,25.70
2018-08-30T23:35:16.097Z,25.70
2018-08-30T23:37:57.189Z,25.70
2018-08-30T23:40:39.073Z,25.60
2018-08-30T23:43:20.754Z,25.60
2018-08-30T23:46:02.401Z,25.60
2018-08-30T23:48:44.483Z,25.60
2018-08-30T23:51:26.168Z,25.60
2018-08-30T23:54:07.564Z,25.50
2018-08-30T23:56:50.570Z,25.50
2018-08-30T23:59:32.106Z,25.50
